Malcolm Mc Kinnon Airport
KSSI : now visible

Airfield :











YOU CAN JOIN US ON...

 
LOGIN :

Register | Disclaimer

   EN    FR    IT 

 









Legend :    VFR   Marginal VFR   IFR   Intensive IFR   Very Intensive IFR
Visi :
Ceiling :
>= 8 km
>= 3000ft
5 to 8 km
1000 to 3000 ft
1500m to 5 km
500 to 1000 ft
800 to 1500m
200 to 500 ft
< 800m
< 200 ft
Symbols :   Thunderstorms  Fog  Heavy snow  Heavy precipitations  Wind > 20 kt






- Airport Elevation : 19 ft


KSSI - Malcolm Mc Kinnon

CURRENT METAR :
  • 180553Z AUTO 03006KT 10SM OVC022 15/13 A3015 RMK AO2 SLP212 T01500133 10156 20150 56004

EXPIRED METARs :
  • 180533Z AUTO 03007KT 10SM FEW007 OVC020 16/13 A3016 RMK AO2 T01560133
  • 180453Z AUTO 03008KT 10SM OVC007 16/13 A3016 RMK AO2 SLP214 T01560133 401720128
  • 180441Z AUTO 02008KT 10SM BKN007 16/13 A3016 RMK AO2 T01560133
  • 180423Z AUTO 02007KT 10SM FEW006 15/13 A3016 RMK AO2 T01500133
  • 180353Z AUTO 03008KT 10SM FEW022 15/13 A3016 RMK AO2 SLP213 T01500133

TAF KSSI
Valid from the 18 at 06:00 until the 19 at 06:00 UTC


180539Z 1806/1906 04006KT P6SM SCT007 OVC020
FM180800 05004KT P6SM BKN004 OVC007
FM181600 11005KT P6SM VCSH BKN009
FM181900 12008KT P6SM VCSH SCT009 BKN015
FM190100 16007KT P6SM OVC010



MET'MAP, your aeronautical weather chart ! - Copyright ORBIFLY December 2007 - Disclaimer

ORBIFLY MET'MAP TEAM :

Programming & Development : Alexandra Zaïnal
Concept & original design : Baudouin d'Aumeries
Assistance for programming : Marc-Olivier Méhu
Technical & hardware support : Manuel Goepfert

Contact : metmap@orbifly.com




SOURCES & CREDITS :

   NOAA       Earth
Advisory